Time,TemperatureF,DewpointF,PressureIn,WindDirection,WindDirectionDegrees,WindSpeedMPH,WindSpeedGustMPH,Humidity,HourlyPrecipIn,Conditions,Clouds,dailyrainin,SoftwareType,DateUTC
2013-09-09 00:00:00,54.0,52.0,-100.00,WSW,246,10.0,-999.0,90,0.00,,,-99.99,,2013-09-09 04:00:00,
2013-09-09 00:43:00,54.0,52.0,-100.00,WSW,246,10.0,-999.0,90,0.00,,,-99.99,,2013-09-09 04:43:00,
2013-09-09 00:54:00,54.0,52.0,-100.00,WSW,246,10.0,-999.0,90,0.00,,,-99.99,,2013-09-09 04:54:00,
2013-09-09 01:00:00,54.0,52.0,-100.00,WSW,253,9.0,-999.0,94,0.00,,,-99.99,,2013-09-09 05:00:00,
2013-09-09 01:43:00,54.0,52.0,-100.00,WSW,253,9.0,-999.0,94,0.00,,,-99.99,,2013-09-09 05:43:00,
2013-09-09 01:53:00,54.0,52.0,-100.00,WSW,253,9.0,-999.0,94,0.00,,,-99.99,,2013-09-09 05:53:00,
2013-09-09 02:00:00,54.0,52.0,-100.00,SW,236,11.0,-999.0,92,0.00,,,-99.99,,2013-09-09 06:00:00,
2013-09-09 02:42:00,54.0,52.0,-100.00,SW,236,11.0,-999.0,92,0.00,,,-99.99,,2013-09-09 06:42:00,
2013-09-09 02:52:00,54.0,52.0,-100.00,SW,236,11.0,-999.0,92,0.00,,,-99.99,,2013-09-09 06:52:00,
2013-09-09 03:00:00,53.0,51.0,-100.00,WSW,245,8.0,-999.0,91,0.00,,,-99.99,,2013-09-09 07:00:00,
2013-09-09 03:43:00,53.0,51.0,-100.00,WSW,245,8.0,-999.0,91,0.00,,,-99.99,,2013-09-09 07:43:00,
2013-09-09 03:52:00,53.0,51.0,-100.00,WSW,245,8.0,-999.0,91,0.00,,,-99.99,,2013-09-09 07:52:00,
2013-09-09 04:00:00,52.0,50.0,-100.00,WSW,250,12.0,-999.0,95,0.00,,,-99.99,,2013-09-09 08:00:00,
2013-09-09 04:43:00,52.0,50.0,-100.00,WSW,250,12.0,-999.0,95,0.00,,,-99.99,,2013-09-09 08:43:00,
2013-09-09 04:52:00,52.0,50.0,-100.00,WSW,250,12.0,-999.0,95,0.00,,,-99.99,,2013-09-09 08:52:00,
2013-09-09 05:00:00,52.0,51.0,-100.00,West,271,7.0,-999.0,93,0.00,,,-99.99,,2013-09-09 09:00:00,
2013-09-09 05:43:00,52.0,51.0,-100.00,West,271,7.0,-999.0,93,0.00,,,-99.99,,2013-09-09 09:43:00,
2013-09-09 05:53:00,52.0,51.0,-100.00,West,271,7.0,-999.0,93,0.00,,,-99.99,,2013-09-09 09:53:00,
2013-09-09 06:00:00,52.0,50.0,-100.00,West,271,6.0,-999.0,95,0.00,,,-99.99,,2013-09-09 10:00:00,
2013-09-09 06:42:00,52.0,50.0,-100.00,West,271,6.0,-999.0,95,0.00,,,-99.99,,2013-09-09 10:42:00,
2013-09-09 06:52:00,52.0,50.0,-100.00,West,271,6.0,-999.0,95,0.00,,,-99.99,,2013-09-09 10:52:00,
2013-09-09 07:00:00,52.0,51.0,-100.00,WNW,288,2.0,-999.0,95,0.00,,,-99.99,,2013-09-09 11:00:00,
2013-09-09 07:42:00,52.0,51.0,-100.00,WNW,288,2.0,-999.0,95,0.00,,,-99.99,,2013-09-09 11:42:00,
2013-09-09 07:52:00,52.0,51.0,-100.00,WNW,288,2.0,-999.0,95,0.00,,,-99.99,,2013-09-09 11:52:00,
2013-09-09 08:00:00,52.0,51.0,-100.00,West,264,4.0,-999.0,95,0.00,,,-99.99,,2013-09-09 12:00:00,
2013-09-09 08:42:00,52.0,51.0,-100.00,West,264,4.0,-999.0,95,0.00,,,-99.99,,2013-09-09 12:42:00,
2013-09-09 08:52:00,52.0,51.0,-100.00,West,264,4.0,-999.0,95,0.00,,,-99.99,,2013-09-09 12:52:00,
2013-09-09 09:00:00,52.0,51.0,-100.00,West,263,1.0,-999.0,95,0.00,,,-99.99,,2013-09-09 13:00:00,
2013-09-09 09:42:00,52.0,51.0,-100.00,West,263,1.0,-999.0,95,0.00,,,-99.99,,2013-09-09 13:42:00,
2013-09-09 09:52:00,52.0,51.0,-100.00,West,263,1.0,-999.0,95,0.00,,,-99.99,,2013-09-09 13:52:00,
2013-09-09 10:00:00,51.0,50.0,-100.00,WSW,244,4.0,-999.0,96,0.00,,,-99.99,,2013-09-09 14:00:00,
2013-09-09 10:42:00,51.0,50.0,-100.00,WSW,244,4.0,-999.0,96,0.00,,,-99.99,,2013-09-09 14:42:00,
2013-09-09 10:52:00,51.0,50.0,-100.00,WSW,244,4.0,-999.0,96,0.00,,,-99.99,,2013-09-09 14:52:00,
2013-09-09 11:00:00,52.0,51.0,-100.00,NNW,343,3.0,-999.0,96,0.00,,,-99.99,,2013-09-09 15:00:00,
2013-09-09 11:43:00,52.0,51.0,-100.00,NNW,343,3.0,-999.0,96,0.00,,,-99.99,,2013-09-09 15:43:00,
2013-09-09 11:53:00,52.0,51.0,-100.00,NNW,343,3.0,-999.0,96,0.00,,,-99.99,,2013-09-09 15:53:00,
2013-09-09 12:00:00,54.0,53.0,-100.00,SW,217,6.0,-999.0,95,0.00,,,-99.99,,2013-09-09 16:00:00,
2013-09-09 12:44:00,54.0,53.0,-100.00,SW,217,6.0,-999.0,95,0.00,,,-99.99,,2013-09-09 16:44:00,
2013-09-09 12:54:00,54.0,53.0,-100.00,SW,217,6.0,-999.0,95,0.00,,,-99.99,,2013-09-09 16:54:00,
2013-09-09 13:00:00,58.0,55.0,-100.00,South,172,5.0,-999.0,88,0.00,,,-99.99,,2013-09-09 17:00:00,
2013-09-09 13:43:00,58.0,55.0,-100.00,South,172,5.0,-999.0,88,0.00,,,-99.99,,2013-09-09 17:43:00,
2013-09-09 13:53:00,58.0,55.0,-100.00,South,172,5.0,-999.0,88,0.00,,,-99.99,,2013-09-09 17:53:00,
2013-09-09 14:00:00,68.0,55.0,-100.00,SW,214,6.0,-999.0,62,0.00,,,-99.99,,2013-09-09 18:00:00,
2013-09-09 14:42:00,68.0,55.0,-100.00,SW,214,6.0,-999.0,62,0.00,,,-99.99,,2013-09-09 18:42:00,
2013-09-09 14:52:00,68.0,55.0,-100.00,SW,214,6.0,-999.0,62,0.00,,,-99.99,,2013-09-09 18:52:00,
2013-09-09 15:00:00,76.0,53.0,-100.00,NW,319,4.0,-999.0,44,0.00,,,-99.99,,2013-09-09 19:00:00,
2013-09-09 15:43:00,76.0,53.0,-100.00,NW,319,4.0,-999.0,44,0.00,,,-99.99,,2013-09-09 19:43:00,
2013-09-09 15:52:00,76.0,53.0,-100.00,NW,319,4.0,-999.0,44,0.00,,,-99.99,,2013-09-09 19:52:00,
2013-09-09 16:00:00,80.0,51.0,-100.00,SW,216,8.0,-999.0,37,0.00,,,-99.99,,2013-09-09 20:00:00,
2013-09-09 16:42:00,80.0,51.0,-100.00,SW,216,8.0,-999.0,37,0.00,,,-99.99,,2013-09-09 20:42:00,
2013-09-09 16:53:00,80.0,51.0,-100.00,SW,216,8.0,-999.0,37,0.00,,,-99.99,,2013-09-09 20:53:00,
2013-09-09 17:00:00,81.0,52.0,-100.00,SW,233,11.0,-999.0,37,0.00,,,-99.99,,2013-09-09 21:00:00,
2013-09-09 17:44:00,81.0,52.0,-100.00,SW,233,11.0,-999.0,37,0.00,,,-99.99,,2013-09-09 21:44:00,
2013-09-09 17:54:00,81.0,52.0,-100.00,SW,233,11.0,-999.0,37,0.00,,,-99.99,,2013-09-09 21:54:00,
2013-09-09 18:00:00,78.0,52.0,-100.00,West,266,15.0,-999.0,41,0.00,,,-99.99,,2013-09-09 22:00:00,
2013-09-09 18:43:00,78.0,52.0,-100.00,West,266,15.0,-999.0,41,0.00,,,-99.99,,2013-09-09 22:43:00,
2013-09-09 18:54:00,78.0,52.0,-100.00,West,266,15.0,-999.0,41,0.00,,,-99.99,,2013-09-09 22:54:00,
2013-09-09 19:00:00,72.0,55.0,-100.00,SW,228,19.0,-999.0,55,0.00,,,-99.99,,2013-09-09 23:00:00,
2013-09-09 19:52:00,72.0,55.0,-100.00,SW,228,19.0,-999.0,55,0.00,,,-99.99,,2013-09-09 23:52:00,
2013-09-09 20:00:00,69.0,56.0,-100.00,SW,236,19.0,-999.0,62,0.00,,,-99.99,,2013-09-10 00:00:00,
2013-09-09 20:42:00,69.0,56.0,-100.00,SW,236,19.0,-999.0,62,0.00,,,-99.99,,2013-09-10 00:42:00,
2013-09-09 20:52:00,69.0,56.0,-100.00,SW,236,19.0,-999.0,62,0.00,,,-99.99,,2013-09-10 00:52:00,
2013-09-09 21:00:00,66.0,56.0,-100.00,SW,220,14.0,-999.0,69,0.00,,,-99.99,,2013-09-10 01:00:00,
2013-09-09 21:42:00,66.0,56.0,-100.00,SW,220,14.0,-999.0,69,0.00,,,-99.99,,2013-09-10 01:42:00,
2013-09-09 21:52:00,66.0,56.0,-100.00,SW,220,14.0,-999.0,69,0.00,,,-99.99,,2013-09-10 01:52:00,
2013-09-09 22:00:00,61.0,56.0,-100.00,WSW,254,18.0,-999.0,83,0.00,,,-99.99,,2013-09-10 02:00:00,
2013-09-09 22:42:00,61.0,56.0,-100.00,WSW,254,18.0,-999.0,83,0.00,,,-99.99,,2013-09-10 02:42:00,
2013-09-09 22:52:00,61.0,56.0,-100.00,WSW,254,18.0,-999.0,83,0.00,,,-99.99,,2013-09-10 02:52:00,
2013-09-09 23:00:00,57.0,55.0,-100.00,WSW,251,12.0,-999.0,92,0.00,,,-99.99,,2013-09-10 03:00:00,
2013-09-09 23:44:00,57.0,55.0,-100.00,WSW,251,12.0,-999.0,92,0.00,,,-99.99,,2013-09-10 03:44:00,
2013-09-09 23:54:00,57.0,55.0,-100.00,WSW,251,12.0,-999.0,92,0.00,,,-99.99,,2013-09-10 03:54:00,